PST,Max TemperatureF,Mean TemperatureF,Min TemperatureF,Max Dew PointF,MeanDew PointF,Min DewpointF,Max Humidity, Mean Humidity, Min Humidity, Max Sea Level PressureIn, Mean Sea Level PressureIn, Min Sea Level PressureIn, Max VisibilityMiles, Mean VisibilityMiles, Min VisibilityMiles, Max Wind SpeedMPH, Mean Wind SpeedMPH, Max Gust SpeedMPH,PrecipitationIn, CloudCover, Events, WindDirDegrees
2012-2-1,49,41,32,37,34,30,100,81,56,30.44,30.27,30.02,10,10,10,14,5,16,0.05,3,Rain,333
2012-2-2,53,39,25,30,27,22,92,72,38,30.47,30.36,30.23,10,10,10,13,2,10,0.00,0,,90
2012-2-3,53,36,19,28,22,17,96,68,28,30.27,30.21,30.14,10,10,10,8,1,10,0.00,0,,198
2012-2-4,54,37,19,27,22,17,92,68,28,30.29,30.23,30.17,10,10,10,7,1,8,0.00,0,,219
2012-2-5,54,37,20,27,23,18,92,67,29,30.33,30.24,30.14,10,10,10,9,2,16,0.00,0,,262
2012-2-6,56,38,19,27,22,17,96,63,24,30.13,30.01,29.86,10,10,10,14,2,38,0.00,0,,39
2012-2-7,52,42,31,36,32,23,79,60,33,30.12,29.94,29.82,10,10,10,30,13,36,0.00,7,,186
2012-2-8,53,41,28,37,34,28,92,75,50,30.36,30.28,30.14,10,10,10,9,3,9,T,6,,39
2012-2-9,62,45,27,39,33,27,100,74,34,30.36,30.26,30.09,10,8,0,21,5,25,0.00,1,Fog,176
2012-2-10,60,49,38,41,37,33,85,64,36,30.11,30.07,30.01,10,10,10,25,10,30,T,4,,158
2012-2-11,54,41,28,41,32,14,92,67,20,30.19,30.11,30.04,10,10,9,18,7,22,0.01,4,Rain,19
2012-2-12,46,33,19,35,28,18,100,83,37,30.18,29.99,29.81,10,9,4,17,3,21,0.20,5,Rain-Snow,7
2012-2-13,43,38,32,34,33,31,100,91,67,30.12,29.96,29.81,10,8,1,14,4,16,0.15,8,Rain-Snow,11
2012-2-14,48,38,27,34,30,24,100,87,58,30.16,30.07,29.99,10,8,1,26,7,35,T,6,Snow,347
2012-2-15,47,34,21,26,23,20,92,69,38,30.41,30.32,30.18,10,10,10,23,5,30,0.00,1,,11
2012-2-16,50,37,24,36,28,23,92,71,36,30.49,30.40,30.32,10,10,10,10,2,25,T,4,,4
2012-2-17,57,43,28,40,34,27,92,73,47,30.34,30.25,30.16,10,10,10,9,2,16,T,3,,93
2012-2-18,46,36,25,36,27,21,89,70,45,30.28,30.22,30.17,10,7,1,21,7,25,0.01,5,Snow,1
2012-2-19,46,32,18,25,20,13,92,73,25,30.27,30.20,30.07,10,10,10,10,2,15,T,0,,15
2012-2-20,54,45,36,,,,,,,,,,,,,15,6,30,0.01,,,
2012-2-21,61,51,41,46,42,40,86,76,55,30.46,30.40,30.35,10,10,10,16,4,28,T,5,Rain,87
2012-2-22,61,46,31,43,35,26,100,81,42,30.45,30.38,30.30,10,7,0,24,9,30,T,3,Fog,322
2012-2-23,56,42,28,26,21,14,78,52,19,30.45,30.37,30.30,10,10,6,17,5,20,0.00,0,,12
2012-2-24,60,40,20,33,23,16,84,56,24,30.34,30.16,29.91,10,10,10,32,6,40,0.01,1,Rain,210
2012-2-25,44,33,21,28,21,18,75,63,44,30.43,30.33,30.11,10,10,9,22,11,26,T,4,,302
2012-2-26,38,27,16,25,19,12,88,67,47,30.39,30.14,30.04,10,10,10,9,2,14,0.00,5,,162
2012-2-27,47,34,21,26,21,15,92,67,28,30.03,29.96,29.89,10,10,10,18,6,22,0.00,5,,8
2012-2-28,45,32,18,34,26,15,100,79,43,30.07,29.89,29.69,10,8,1,24,12,29,0.23,6,Snow,174
2012-2-29,38,30,21,32,27,21,100,84,64,30.09,29.94,29.76,10,7,1,21,6,46,0.02,6,Snow,238